Terminal Aerodrome Forecast
Issued by NWS Albany, NY

Current Version | Previous Version | Text Only | Print | Product List | Glossary Off
Versions: 1 2 3 4 5 6 7 8 9 10 11 12 13 14 15 16 17

000
FTUS41 KALY 291130
TAFGFL
TAF
KGFL 291130Z 2912/3012 VRB03KT P6SM FEW250
     FM291500 19006KT P6SM FEW050
     FM292100 25007KT P6SM SCT050
     FM300200 VRB03KT P6SM SCT090=

USA.gov is the U.S. government's official web portal to all federal, state and local government web resources and services.